sensor_id;sensor_type;location;lat;lon;timestamp;P1;durP1;ratioP1;P2;durP2;ratioP2
69951;SDS011;60406;48.408;13.392;2022-10-16T00:03:01;25.33;;;16.25;;
69951;SDS011;60406;48.408;13.392;2022-10-16T00:08:02;25.17;;;16.95;;
69951;SDS011;60406;48.408;13.392;2022-10-16T00:13:03;23.38;;;15.73;;
69951;SDS011;60406;48.408;13.392;2022-10-16T00:18:05;25.95;;;18.02;;
69951;SDS011;60406;48.408;13.392;2022-10-16T00:23:06;28.35;;;19.58;;
69951;SDS011;60406;48.408;13.392;2022-10-16T00:28:07;23.95;;;18.85;;
69951;SDS011;60406;48.408;13.392;2022-10-16T00:33:07;27.98;;;19.27;;
69951;SDS011;60406;48.408;13.392;2022-10-16T00:38:08;28.85;;;19.33;;
69951;SDS011;60406;48.408;13.392;2022-10-16T00:43:13;21.48;;;16.40;;
69951;SDS011;60406;48.408;13.392;2022-10-16T00:48:32;25.02;;;18.85;;
69951;SDS011;60406;48.408;13.392;2022-10-16T00:53:32;18.83;;;15.48;;
69951;SDS011;60406;48.408;13.392;2022-10-16T00:58:33;25.13;;;16.48;;
69951;SDS011;60406;48.408;13.392;2022-10-16T01:03:35;28.63;;;16.70;;
69951;SDS011;60406;48.408;13.392;2022-10-16T01:13:42;33.20;;;21.60;;
69951;SDS011;60406;48.408;13.392;2022-10-16T01:18:44;29.83;;;20.58;;
69951;SDS011;60406;48.408;13.392;2022-10-16T01:29:16;33.22;;;19.88;;
69951;SDS011;60406;48.408;13.392;2022-10-16T01:34:22;45.92;;;23.40;;
69951;SDS011;60406;48.408;13.392;2022-10-16T01:39:36;26.55;;;15.85;;
69951;SDS011;60406;48.408;13.392;2022-10-16T01:44:39;26.70;;;17.15;;
69951;SDS011;60406;48.408;13.392;2022-10-16T01:49:40;18.83;;;14.35;;
69951;SDS011;60406;48.408;13.392;2022-10-16T01:54:42;170.18;;;23.67;;
69951;SDS011;60406;48.408;13.392;2022-10-16T01:59:45;28.85;;;17.55;;
69951;SDS011;60406;48.408;13.392;2022-10-16T02:04:53;20.42;;;15.88;;
69951;SDS011;60406;48.408;13.392;2022-10-16T02:09:57;24.77;;;15.50;;
69951;SDS011;60406;48.408;13.392;2022-10-16T02:15:00;43.95;;;23.75;;
69951;SDS011;60406;48.408;13.392;2022-10-16T02:20:01;33.25;;;20.45;;
69951;SDS011;60406;48.408;13.392;2022-10-16T02:25:11;31.67;;;17.73;;
69951;SDS011;60406;48.408;13.392;2022-10-16T02:35:58;24.63;;;14.27;;
69951;SDS011;60406;48.408;13.392;2022-10-16T02:40:59;21.75;;;12.90;;
69951;SDS011;60406;48.408;13.392;2022-10-16T02:46:00;25.25;;;14.50;;
69951;SDS011;60406;48.408;13.392;2022-10-16T02:51:01;20.10;;;13.48;;
69951;SDS011;60406;48.408;13.392;2022-10-16T02:56:02;27.40;;;15.48;;
69951;SDS011;60406;48.408;13.392;2022-10-16T03:01:02;26.27;;;16.05;;
69951;SDS011;60406;48.408;13.392;2022-10-16T03:06:03;26.13;;;16.17;;
69951;SDS011;60406;48.408;13.392;2022-10-16T03:11:05;26.63;;;16.77;;
69951;SDS011;60406;48.408;13.392;2022-10-16T03:16:05;23.08;;;15.68;;
69951;SDS011;60406;48.408;13.392;2022-10-16T03:21:06;24.70;;;16.48;;
69951;SDS011;60406;48.408;13.392;2022-10-16T03:26:07;29.45;;;19.63;;
69951;SDS011;60406;48.408;13.392;2022-10-16T03:31:08;18.10;;;14.13;;
69951;SDS011;60406;48.408;13.392;2022-10-16T03:36:09;244.70;;;19.17;;
69951;SDS011;60406;48.408;13.392;2022-10-16T03:41:10;154.60;;;19.52;;
69951;SDS011;60406;48.408;13.392;2022-10-16T03:46:11;140.93;;;16.20;;
69951;SDS011;60406;48.408;13.392;2022-10-16T03:51:12;203.00;;;20.55;;
69951;SDS011;60406;48.408;13.392;2022-10-16T03:56:13;177.63;;;21.77;;
69951;SDS011;60406;48.408;13.392;2022-10-16T04:01:13;103.40;;;17.75;;
69951;SDS011;60406;48.408;13.392;2022-10-16T04:06:14;138.15;;;19.80;;
69951;SDS011;60406;48.408;13.392;2022-10-16T04:11:15;45.78;;;15.60;;
69951;SDS011;60406;48.408;13.392;2022-10-16T04:16:16;50.13;;;22.10;;
69951;SDS011;60406;48.408;13.392;2022-10-16T04:21:17;89.15;;;26.08;;
69951;SDS011;60406;48.408;13.392;2022-10-16T04:26:18;138.35;;;32.58;;
69951;SDS011;60406;48.408;13.392;2022-10-16T04:31:19;51.88;;;23.92;;
69951;SDS011;60406;48.408;13.392;2022-10-16T04:36:20;99.88;;;26.75;;
69951;SDS011;60406;48.408;13.392;2022-10-16T04:41:21;45.00;;;22.60;;
69951;SDS011;60406;48.408;13.392;2022-10-16T04:46:22;49.63;;;23.75;;
69951;SDS011;60406;48.408;13.392;2022-10-16T04:51:23;99.35;;;27.15;;
69951;SDS011;60406;48.408;13.392;2022-10-16T04:56:24;52.22;;;22.50;;
69951;SDS011;60406;48.408;13.392;2022-10-16T05:01:24;88.90;;;26.38;;
69951;SDS011;60406;48.408;13.392;2022-10-16T05:06:25;136.05;;;29.67;;
69951;SDS011;60406;48.408;13.392;2022-10-16T05:11:26;102.72;;;28.00;;
69951;SDS011;60406;48.408;13.392;2022-10-16T05:16:27;112.28;;;27.33;;
69951;SDS011;60406;48.408;13.392;2022-10-16T05:21:28;151.55;;;31.23;;
69951;SDS011;60406;48.408;13.392;2022-10-16T05:26:29;121.95;;;28.52;;
69951;SDS011;60406;48.408;13.392;2022-10-16T05:31:30;118.63;;;30.90;;
69951;SDS011;60406;48.408;13.392;2022-10-16T05:36:31;135.57;;;31.95;;
69951;SDS011;60406;48.408;13.392;2022-10-16T05:41:32;78.53;;;26.42;;
69951;SDS011;60406;48.408;13.392;2022-10-16T05:46:32;118.40;;;30.25;;
69951;SDS011;60406;48.408;13.392;2022-10-16T05:51:33;53.03;;;21.90;;
69951;SDS011;60406;48.408;13.392;2022-10-16T05:56:34;27.85;;;18.95;;
69951;SDS011;60406;48.408;13.392;2022-10-16T06:01:35;28.95;;;16.40;;
69951;SDS011;60406;48.408;13.392;2022-10-16T06:06:36;29.45;;;17.58;;
69951;SDS011;60406;48.408;13.392;2022-10-16T06:11:37;20.48;;;15.07;;
69951;SDS011;60406;48.408;13.392;2022-10-16T06:16:38;23.70;;;16.45;;
69951;SDS011;60406;48.408;13.392;2022-10-16T06:21:39;21.15;;;17.30;;
69951;SDS011;60406;48.408;13.392;2022-10-16T06:26:39;26.90;;;19.30;;
69951;SDS011;60406;48.408;13.392;2022-10-16T06:31:40;25.08;;;18.77;;
69951;SDS011;60406;48.408;13.392;2022-10-16T06:36:41;25.98;;;19.20;;
69951;SDS011;60406;48.408;13.392;2022-10-16T06:41:42;30.20;;;21.17;;
69951;SDS011;60406;48.408;13.392;2022-10-16T06:46:43;30.98;;;21.85;;
69951;SDS011;60406;48.408;13.392;2022-10-16T06:51:44;31.10;;;21.88;;
69951;SDS011;60406;48.408;13.392;2022-10-16T06:56:45;27.15;;;19.80;;
69951;SDS011;60406;48.408;13.392;2022-10-16T07:01:45;28.70;;;20.15;;
69951;SDS011;60406;48.408;13.392;2022-10-16T07:06:46;30.10;;;21.13;;
69951;SDS011;60406;48.408;13.392;2022-10-16T07:11:47;31.42;;;22.42;;
69951;SDS011;60406;48.408;13.392;2022-10-16T07:16:48;35.17;;;24.80;;
69951;SDS011;60406;48.408;13.392;2022-10-16T07:21:49;33.90;;;23.77;;
69951;SDS011;60406;48.408;13.392;2022-10-16T07:26:50;32.28;;;22.70;;
69951;SDS011;60406;48.408;13.392;2022-10-16T07:31:51;33.15;;;21.90;;
69951;SDS011;60406;48.408;13.392;2022-10-16T07:36:52;24.85;;;18.67;;
69951;SDS011;60406;48.408;13.392;2022-10-16T07:41:53;26.80;;;19.05;;
69951;SDS011;60406;48.408;13.392;2022-10-16T07:46:53;25.77;;;19.15;;
69951;SDS011;60406;48.408;13.392;2022-10-16T07:51:54;26.17;;;19.45;;
69951;SDS011;60406;48.408;13.392;2022-10-16T07:56:55;26.42;;;20.27;;
69951;SDS011;60406;48.408;13.392;2022-10-16T08:01:56;24.55;;;17.75;;
69951;SDS011;60406;48.408;13.392;2022-10-16T08:06:57;20.52;;;17.00;;
69951;SDS011;60406;48.408;13.392;2022-10-16T08:11:58;23.30;;;17.63;;
69951;SDS011;60406;48.408;13.392;2022-10-16T08:16:59;22.65;;;16.98;;
69951;SDS011;60406;48.408;13.392;2022-10-16T08:22:00;21.30;;;16.95;;
69951;SDS011;60406;48.408;13.392;2022-10-16T08:27:01;21.67;;;16.85;;
69951;SDS011;60406;48.408;13.392;2022-10-16T08:32:03;24.65;;;15.48;;
69951;SDS011;60406;48.408;13.392;2022-10-16T08:37:04;23.42;;;15.77;;
69951;SDS011;60406;48.408;13.392;2022-10-16T08:42:08;20.92;;;15.65;;
69951;SDS011;60406;48.408;13.392;2022-10-16T08:47:18;23.35;;;15.15;;
69951;SDS011;60406;48.408;13.392;2022-10-16T08:52:23;19.23;;;14.77;;
69951;SDS011;60406;48.408;13.392;2022-10-16T08:57:26;16.33;;;10.25;;
69951;SDS011;60406;48.408;13.392;2022-10-16T09:02:37;10.57;;;8.90;;
69951;SDS011;60406;48.408;13.392;2022-10-16T09:13:21;9.48;;;8.45;;
69951;SDS011;60406;48.408;13.392;2022-10-16T09:18:30;14.13;;;8.25;;
69951;SDS011;60406;48.408;13.392;2022-10-16T09:23:39;10.07;;;8.43;;
69951;SDS011;60406;48.408;13.392;2022-10-16T09:28:40;10.70;;;8.32;;
69951;SDS011;60406;48.408;13.392;2022-10-16T09:33:41;12.73;;;8.63;;
69951;SDS011;60406;48.408;13.392;2022-10-16T09:38:42;13.80;;;8.60;;
69951;SDS011;60406;48.408;13.392;2022-10-16T09:43:56;9.95;;;8.30;;
69951;SDS011;60406;48.408;13.392;2022-10-16T09:49:01;9.90;;;8.43;;
69951;SDS011;60406;48.408;13.392;2022-10-16T09:59:15;11.48;;;7.93;;
69951;SDS011;60406;48.408;13.392;2022-10-16T10:04:18;10.25;;;7.65;;
69951;SDS011;60406;48.408;13.392;2022-10-16T10:09:23;10.68;;;6.82;;
69951;SDS011;60406;48.408;13.392;2022-10-16T10:14:47;12.52;;;7.75;;
69951;SDS011;60406;48.408;13.392;2022-10-16T10:35:17;10.68;;;8.32;;
69951;SDS011;60406;48.408;13.392;2022-10-16T10:40:23;9.18;;;7.15;;
69951;SDS011;60406;48.408;13.392;2022-10-16T10:45:46;9.75;;;8.75;;
69951;SDS011;60406;48.408;13.392;2022-10-16T10:50:49;13.02;;;8.40;;
69951;SDS011;60406;48.408;13.392;2022-10-16T10:56:14;11.30;;;8.63;;
69951;SDS011;60406;48.408;13.392;2022-10-16T11:01:23;9.23;;;6.72;;
69951;SDS011;60406;48.408;13.392;2022-10-16T11:06:36;7.32;;;6.35;;
69951;SDS011;60406;48.408;13.392;2022-10-16T11:12:01;11.00;;;6.18;;
69951;SDS011;60406;48.408;13.392;2022-10-16T11:17:19;7.38;;;4.60;;
69951;SDS011;60406;48.408;13.392;2022-10-16T11:27:36;3.80;;;3.40;;
69951;SDS011;60406;48.408;13.392;2022-10-16T11:32:47;7.43;;;4.00;;
69951;SDS011;60406;48.408;13.392;2022-10-16T11:37:53;8.85;;;3.33;;
69951;SDS011;60406;48.408;13.392;2022-10-16T11:42:56;5.57;;;3.75;;
69951;SDS011;60406;48.408;13.392;2022-10-16T11:48:15;4.70;;;3.30;;
69951;SDS011;60406;48.408;13.392;2022-10-16T11:54:04;5.43;;;4.07;;
69951;SDS011;60406;48.408;13.392;2022-10-16T11:58:52;9.05;;;3.80;;
69951;SDS011;60406;48.408;13.392;2022-10-16T12:04:03;7.25;;;4.50;;
69951;SDS011;60406;48.408;13.392;2022-10-16T12:09:05;6.13;;;3.33;;
69951;SDS011;60406;48.408;13.392;2022-10-16T12:14:59;5.68;;;3.90;;
69951;SDS011;60406;48.408;13.392;2022-10-16T12:19:30;8.43;;;3.55;;
69951;SDS011;60406;48.408;13.392;2022-10-16T12:29:36;4.53;;;4.13;;
69951;SDS011;60406;48.408;13.392;2022-10-16T12:34:39;7.55;;;4.00;;
69951;SDS011;60406;48.408;13.392;2022-10-16T12:39:43;8.77;;;3.88;;
69951;SDS011;60406;48.408;13.392;2022-10-16T12:44:44;7.00;;;3.42;;
69951;SDS011;60406;48.408;13.392;2022-10-16T12:49:49;7.53;;;3.03;;
69951;SDS011;60406;48.408;13.392;2022-10-16T12:54:51;4.03;;;2.83;;
69951;SDS011;60406;48.408;13.392;2022-10-16T13:00:04;3.17;;;2.88;;
69951;SDS011;60406;48.408;13.392;2022-10-16T13:15:45;2.83;;;2.30;;
69951;SDS011;60406;48.408;13.392;2022-10-16T13:20:55;5.93;;;2.10;;
69951;SDS011;60406;48.408;13.392;2022-10-16T13:31:42;3.63;;;1.92;;
69951;SDS011;60406;48.408;13.392;2022-10-16T13:36:45;3.10;;;2.20;;
69951;SDS011;60406;48.408;13.392;2022-10-16T13:42:01;6.32;;;2.15;;
69951;SDS011;60406;48.408;13.392;2022-10-16T13:47:03;5.18;;;2.30;;
69951;SDS011;60406;48.408;13.392;2022-10-16T13:52:04;4.13;;;2.20;;
69951;SDS011;60406;48.408;13.392;2022-10-16T13:57:05;2.47;;;2.17;;
69951;SDS011;60406;48.408;13.392;2022-10-16T14:02:20;10.90;;;3.92;;
69951;SDS011;60406;48.408;13.392;2022-10-16T14:07:29;6.43;;;2.58;;
69951;SDS011;60406;48.408;13.392;2022-10-16T14:12:31;6.60;;;2.90;;
69951;SDS011;60406;48.408;13.392;2022-10-16T14:17:33;3.83;;;3.40;;
69951;SDS011;60406;48.408;13.392;2022-10-16T14:22:36;5.32;;;3.22;;
69951;SDS011;60406;48.408;13.392;2022-10-16T14:27:38;7.72;;;3.00;;
69951;SDS011;60406;48.408;13.392;2022-10-16T14:32:40;5.72;;;3.05;;
69951;SDS011;60406;48.408;13.392;2022-10-16T14:37:42;3.17;;;2.80;;
69951;SDS011;60406;48.408;13.392;2022-10-16T14:42:44;5.05;;;3.03;;
69951;SDS011;60406;48.408;13.392;2022-10-16T14:47:50;7.07;;;3.50;;
69951;SDS011;60406;48.408;13.392;2022-10-16T14:52:53;6.22;;;3.13;;
69951;SDS011;60406;48.408;13.392;2022-10-16T14:57:53;6.63;;;3.50;;
69951;SDS011;60406;48.408;13.392;2022-10-16T15:02:54;3.72;;;2.97;;
69951;SDS011;60406;48.408;13.392;2022-10-16T15:07:55;9.77;;;3.40;;
69951;SDS011;60406;48.408;13.392;2022-10-16T15:12:56;8.35;;;3.45;;
69951;SDS011;60406;48.408;13.392;2022-10-16T15:17:57;13.82;;;3.67;;
69951;SDS011;60406;48.408;13.392;2022-10-16T15:22:58;7.90;;;3.65;;
69951;SDS011;60406;48.408;13.392;2022-10-16T15:27:59;7.95;;;3.67;;
69951;SDS011;60406;48.408;13.392;2022-10-16T15:33:01;6.80;;;4.27;;
69951;SDS011;60406;48.408;13.392;2022-10-16T15:38:03;11.43;;;4.28;;
69951;SDS011;60406;48.408;13.392;2022-10-16T15:43:04;8.70;;;4.72;;
69951;SDS011;60406;48.408;13.392;2022-10-16T15:48:05;8.65;;;4.13;;
69951;SDS011;60406;48.408;13.392;2022-10-16T15:53:06;19.48;;;4.28;;
69951;SDS011;60406;48.408;13.392;2022-10-16T15:58:07;8.07;;;6.18;;
69951;SDS011;60406;48.408;13.392;2022-10-16T16:03:08;14.80;;;4.95;;
69951;SDS011;60406;48.408;13.392;2022-10-16T16:08:08;8.60;;;5.63;;
69951;SDS011;60406;48.408;13.392;2022-10-16T16:13:10;10.65;;;5.80;;
69951;SDS011;60406;48.408;13.392;2022-10-16T16:18:11;12.95;;;7.82;;
69951;SDS011;60406;48.408;13.392;2022-10-16T16:23:11;12.35;;;9.30;;
69951;SDS011;60406;48.408;13.392;2022-10-16T16:28:12;22.75;;;12.48;;
69951;SDS011;60406;48.408;13.392;2022-10-16T16:33:13;43.25;;;27.02;;
69951;SDS011;60406;48.408;13.392;2022-10-16T16:38:14;35.83;;;20.88;;
69951;SDS011;60406;48.408;13.392;2022-10-16T16:43:15;34.20;;;19.95;;
69951;SDS011;60406;48.408;13.392;2022-10-16T16:48:16;15.82;;;11.57;;
69951;SDS011;60406;48.408;13.392;2022-10-16T16:53:17;21.70;;;12.20;;
69951;SDS011;60406;48.408;13.392;2022-10-16T16:58:18;21.23;;;11.13;;
69951;SDS011;60406;48.408;13.392;2022-10-16T17:03:18;29.02;;;13.77;;
69951;SDS011;60406;48.408;13.392;2022-10-16T17:08:19;16.70;;;11.48;;
69951;SDS011;60406;48.408;13.392;2022-10-16T17:13:21;17.15;;;10.45;;
69951;SDS011;60406;48.408;13.392;2022-10-16T17:18:23;12.25;;;8.55;;
69951;SDS011;60406;48.408;13.392;2022-10-16T17:23:24;16.75;;;8.40;;
69951;SDS011;60406;48.408;13.392;2022-10-16T17:28:25;13.73;;;7.45;;
69951;SDS011;60406;48.408;13.392;2022-10-16T17:33:26;15.45;;;7.95;;
69951;SDS011;60406;48.408;13.392;2022-10-16T17:38:26;11.07;;;6.93;;
69951;SDS011;60406;48.408;13.392;2022-10-16T17:43:27;11.57;;;6.80;;
69951;SDS011;60406;48.408;13.392;2022-10-16T17:48:28;11.10;;;6.80;;
69951;SDS011;60406;48.408;13.392;2022-10-16T17:53:29;10.95;;;7.13;;
69951;SDS011;60406;48.408;13.392;2022-10-16T17:58:30;12.50;;;7.28;;
69951;SDS011;60406;48.408;13.392;2022-10-16T18:03:31;12.77;;;8.05;;
69951;SDS011;60406;48.408;13.392;2022-10-16T18:08:32;12.45;;;7.47;;
69951;SDS011;60406;48.408;13.392;2022-10-16T18:13:33;19.83;;;10.18;;
69951;SDS011;60406;48.408;13.392;2022-10-16T18:18:34;11.93;;;8.52;;
69951;SDS011;60406;48.408;13.392;2022-10-16T18:23:38;16.35;;;8.60;;
69951;SDS011;60406;48.408;13.392;2022-10-16T18:28:40;13.57;;;9.38;;
69951;SDS011;60406;48.408;13.392;2022-10-16T18:33:41;14.40;;;9.45;;
69951;SDS011;60406;48.408;13.392;2022-10-16T18:38:42;18.00;;;7.80;;
69951;SDS011;60406;48.408;13.392;2022-10-16T18:43:43;11.90;;;7.93;;
69951;SDS011;60406;48.408;13.392;2022-10-16T18:48:44;15.02;;;7.82;;
69951;SDS011;60406;48.408;13.392;2022-10-16T18:53:46;9.38;;;7.13;;
69951;SDS011;60406;48.408;13.392;2022-10-16T18:58:49;16.97;;;9.73;;
69951;SDS011;60406;48.408;13.392;2022-10-16T19:04:10;18.00;;;8.60;;
69951;SDS011;60406;48.408;13.392;2022-10-16T19:09:12;11.25;;;7.85;;
69951;SDS011;60406;48.408;13.392;2022-10-16T19:14:15;15.80;;;9.20;;
69951;SDS011;60406;48.408;13.392;2022-10-16T19:19:16;16.98;;;8.80;;
69951;SDS011;60406;48.408;13.392;2022-10-16T19:24:17;15.32;;;9.45;;
69951;SDS011;60406;48.408;13.392;2022-10-16T19:29:18;13.25;;;8.43;;
69951;SDS011;60406;48.408;13.392;2022-10-16T19:34:19;13.20;;;8.10;;
69951;SDS011;60406;48.408;13.392;2022-10-16T19:39:20;21.13;;;9.27;;
69951;SDS011;60406;48.408;13.392;2022-10-16T19:44:21;11.20;;;8.70;;
69951;SDS011;60406;48.408;13.392;2022-10-16T19:49:22;13.85;;;8.32;;
69951;SDS011;60406;48.408;13.392;2022-10-16T19:54:23;15.85;;;8.80;;
69951;SDS011;60406;48.408;13.392;2022-10-16T19:59:23;22.70;;;8.68;;
69951;SDS011;60406;48.408;13.392;2022-10-16T20:04:24;17.27;;;7.63;;
69951;SDS011;60406;48.408;13.392;2022-10-16T20:09:25;17.17;;;8.52;;
69951;SDS011;60406;48.408;13.392;2022-10-16T20:14:26;11.60;;;7.10;;
69951;SDS011;60406;48.408;13.392;2022-10-16T20:19:27;9.80;;;7.82;;
69951;SDS011;60406;48.408;13.392;2022-10-16T20:24:28;12.07;;;8.27;;
69951;SDS011;60406;48.408;13.392;2022-10-16T20:29:29;10.93;;;8.68;;
69951;SDS011;60406;48.408;13.392;2022-10-16T20:34:30;11.75;;;8.63;;
69951;SDS011;60406;48.408;13.392;2022-10-16T20:39:31;15.77;;;9.25;;
69951;SDS011;60406;48.408;13.392;2022-10-16T20:44:34;13.07;;;9.35;;
69951;SDS011;60406;48.408;13.392;2022-10-16T20:54:36;14.95;;;10.15;;
69951;SDS011;60406;48.408;13.392;2022-10-16T20:59:37;14.32;;;11.40;;
69951;SDS011;60406;48.408;13.392;2022-10-16T21:04:38;17.08;;;12.10;;
69951;SDS011;60406;48.408;13.392;2022-10-16T21:09:39;15.45;;;11.38;;
69951;SDS011;60406;48.408;13.392;2022-10-16T21:14:40;17.95;;;10.68;;
69951;SDS011;60406;48.408;13.392;2022-10-16T21:19:41;14.38;;;11.48;;
69951;SDS011;60406;48.408;13.392;2022-10-16T21:24:41;19.95;;;10.30;;
69951;SDS011;60406;48.408;13.392;2022-10-16T21:29:42;27.40;;;9.65;;
69951;SDS011;60406;48.408;13.392;2022-10-16T21:34:43;19.88;;;14.02;;
69951;SDS011;60406;48.408;13.392;2022-10-16T21:39:44;22.55;;;13.93;;
69951;SDS011;60406;48.408;13.392;2022-10-16T21:44:45;33.30;;;22.25;;
69951;SDS011;60406;48.408;13.392;2022-10-16T21:49:46;42.78;;;28.08;;
69951;SDS011;60406;48.408;13.392;2022-10-16T21:54:47;33.95;;;22.98;;
69951;SDS011;60406;48.408;13.392;2022-10-16T21:59:48;23.58;;;18.05;;
69951;SDS011;60406;48.408;13.392;2022-10-16T22:04:49;19.55;;;15.50;;
69951;SDS011;60406;48.408;13.392;2022-10-16T22:09:50;27.35;;;16.85;;
69951;SDS011;60406;48.408;13.392;2022-10-16T22:14:51;34.70;;;23.30;;
69951;SDS011;60406;48.408;13.392;2022-10-16T22:19:52;63.75;;;40.15;;
69951;SDS011;60406;48.408;13.392;2022-10-16T22:24:52;71.85;;;42.60;;
69951;SDS011;60406;48.408;13.392;2022-10-16T22:29:53;48.30;;;33.20;;
69951;SDS011;60406;48.408;13.392;2022-10-16T22:34:54;69.40;;;40.30;;
69951;SDS011;60406;48.408;13.392;2022-10-16T22:39:55;70.85;;;47.53;;
69951;SDS011;60406;48.408;13.392;2022-10-16T22:44:56;83.68;;;49.55;;
69951;SDS011;60406;48.408;13.392;2022-10-16T22:49:57;93.10;;;55.50;;
69951;SDS011;60406;48.408;13.392;2022-10-16T22:54:58;86.63;;;53.33;;
69951;SDS011;60406;48.408;13.392;2022-10-16T22:59:59;84.20;;;51.55;;
69951;SDS011;60406;48.408;13.392;2022-10-16T23:04:59;97.43;;;57.95;;
69951;SDS011;60406;48.408;13.392;2022-10-16T23:10:01;88.25;;;54.40;;
69951;SDS011;60406;48.408;13.392;2022-10-16T23:15:02;42.03;;;28.25;;
69951;SDS011;60406;48.408;13.392;2022-10-16T23:20:03;48.35;;;28.85;;
69951;SDS011;60406;48.408;13.392;2022-10-16T23:25:05;70.53;;;39.47;;
69951;SDS011;60406;48.408;13.392;2022-10-16T23:30:06;97.88;;;54.92;;
69951;SDS011;60406;48.408;13.392;2022-10-16T23:35:07;88.03;;;51.28;;
69951;SDS011;60406;48.408;13.392;2022-10-16T23:40:08;107.07;;;60.53;;
69951;SDS011;60406;48.408;13.392;2022-10-16T23:45:09;120.07;;;64.38;;
69951;SDS011;60406;48.408;13.392;2022-10-16T23:50:10;135.75;;;69.82;;
69951;SDS011;60406;48.408;13.392;2022-10-16T23:55:11;131.60;;;71.15;;
